EDT,Max TemperatureF,Mean TemperatureF,Min TemperatureF,Max Dew PointF,MeanDew PointF,Min DewpointF,Max Humidity, Mean Humidity, Min Humidity, Max Sea Level PressureIn, Mean Sea Level PressureIn, Min Sea Level PressureIn, Max VisibilityMiles, Mean VisibilityMiles, Min VisibilityMiles, Max Wind SpeedMPH, Mean Wind SpeedMPH, Max Gust SpeedMPH,PrecipitationIn, CloudCover, Events, WindDirDegrees
2014-3-1,51,43,35,36,28,10,70,57,35,30.18,30.13,30.06,10,10,10,14,6,17,0.00,7,,210
2014-3-2,35,28,19,30,24,14,93,83,70,30.26,30.18,30.10,10,6,1,14,6,20,0.36,7,,4
2014-3-3,24,18,12,16,10,3,86,70,54,30.41,30.33,30.20,10,8,2,0,0,,0.00,1,,-1
2014-3-4,35,22,8,18,11,3,85,64,41,30.37,30.27,30.19,10,10,10,0,0,,0.00,0,,-1
2014-3-5,41,29,17,25,19,12,93,66,45,30.29,30.24,30.17,10,10,5,14,5,,0.00,0,,54
2014-3-6,46,35,24,28,23,18,80,64,49,30.27,30.18,30.09,10,10,10,14,9,,0.00,0,,42
2014-3-7,57,42,26,37,30,21,93,67,44,30.08,30.03,29.97,10,9,3,12,4,,0.00,0,,211
2014-3-8,59,47,33,45,34,25,87,72,55,30.25,30.09,30.00,10,9,5,17,7,26,0.00,0,,240
2014-3-9,48,36,24,30,25,19,86,66,50,30.33,30.22,30.06,10,10,5,13,7,20,0.00,0,,272
2014-3-10,66,50,35,43,36,28,87,63,35,30.07,29.92,29.79,10,8,2,22,11,26,0.00,0,,212
2014-3-11,73,60,46,46,42,39,82,57,31,29.80,29.69,29.53,10,10,9,16,9,21,0.00,0,,208
2014-3-12,62,47,30,55,35,25,88,71,55,30.10,29.73,29.33,10,10,3,26,15,40,0.11,7,,314
2014-3-13,44,34,23,25,21,16,86,61,39,30.27,30.16,30.09,10,10,7,13,7,18,0.00,0,,217
2014-3-14,62,50,37,37,31,21,61,50,34,30.08,29.97,29.86,10,10,10,31,15,44,0.00,0,,215
2014-3-15,64,48,33,37,32,28,87,54,26,30.12,30.04,29.97,10,10,10,12,6,,0.00,0,,268
2014-3-16,50,39,28,30,25,14,80,62,47,30.01,29.97,29.92,10,10,8,26,17,36,0.01,4,,60
2014-3-17,39,32,26,27,20,14,80,63,55,29.98,29.90,29.83,10,10,10,18,9,29,0.00,6,,51
2014-3-18,51,38,26,41,33,21,93,78,62,29.96,29.87,29.75,10,10,7,14,6,20,0.00,5,,151
2014-3-19,55,48,39,46,40,28,82,72,57,30.14,29.90,29.76,10,10,7,25,16,33,0.03,5,,250
2014-3-20,39,32,26,30,26,25,93,78,65,30.19,30.15,30.13,10,9,4,9,6,,0.00,0,,268
2014-3-21,68,57,46,36,31,28,53,35,24,30.01,29.91,29.86,10,10,10,20,13,28,0.00,0,,215
2014-3-22,55,47,39,37,31,27,71,54,41,30.20,30.09,29.89,10,10,10,15,11,25,0.00,0,,349
2014-3-23,44,37,30,28,22,16,75,54,36,30.36,30.30,30.20,10,10,10,17,10,26,0.00,1,,2
2014-3-24,42,32,21,27,18,12,86,58,31,30.37,30.28,30.16,10,10,5,14,6,21,0.00,0,,21
2014-3-25,37,32,26,27,20,10,93,64,41,30.28,30.15,30.06,10,8,1,30,9,38,0.00,2,,317
2014-3-26,44,30,15,16,12,10,86,49,27,30.41,30.30,30.19,10,10,10,10,5,,0.00,0,,213
2014-3-27,59,47,35,45,27,16,82,46,34,30.19,29.98,29.78,10,10,10,29,13,39,0.03,4,,189
2014-3-28,57,52,46,50,43,37,88,71,58,30.05,29.95,29.75,10,10,7,24,15,33,0.46,3,Thunderstorm,336
2014-3-29,51,46,41,41,36,34,87,71,54,30.22,30.06,29.93,10,7,3,18,12,28,0.63,8,Thunderstorm,5
2014-3-30,57,44,30,37,31,27,87,65,41,30.29,30.22,30.15,10,9,4,13,6,20,0.00,1,,359
2014-3-31,71,53,35,37,31,28,81,48,20,30.17,30.08,29.89,10,10,10,17,6,25,0.00,1,,177